sensor_id;sensor_type;location;lat;lon;timestamp;P1;durP1;ratioP1;P2;durP2;ratioP2
75864;SDS011;64510;46.704;38.274;2023-04-30T00:00:26;3.10;;;2.50;;
75864;SDS011;64510;46.704;38.274;2023-04-30T00:02:52;4.35;;;1.90;;
75864;SDS011;64510;46.704;38.274;2023-04-30T00:05:18;6.63;;;2.55;;
75864;SDS011;64510;46.704;38.274;2023-04-30T00:07:44;2.13;;;1.92;;
75864;SDS011;64510;46.704;38.274;2023-04-30T00:10:10;5.55;;;2.45;;
75864;SDS011;64510;46.704;38.274;2023-04-30T00:12:36;5.70;;;2.78;;
75864;SDS011;64510;46.704;38.274;2023-04-30T00:15:03;2.65;;;2.38;;
75864;SDS011;64510;46.704;38.274;2023-04-30T00:17:29;3.30;;;2.08;;
75864;SDS011;64510;46.704;38.274;2023-04-30T00:19:55;4.43;;;2.72;;
75864;SDS011;64510;46.704;38.274;2023-04-30T00:22:21;5.28;;;2.75;;
75864;SDS011;64510;46.704;38.274;2023-04-30T00:24:47;5.00;;;2.45;;
75864;SDS011;64510;46.704;38.274;2023-04-30T00:27:13;4.57;;;2.50;;
75864;SDS011;64510;46.704;38.274;2023-04-30T00:29:39;2.35;;;2.15;;
75864;SDS011;64510;46.704;38.274;2023-04-30T00:32:05;4.15;;;2.60;;
75864;SDS011;64510;46.704;38.274;2023-04-30T00:34:31;5.65;;;2.40;;
75864;SDS011;64510;46.704;38.274;2023-04-30T00:36:57;3.60;;;2.38;;
75864;SDS011;64510;46.704;38.274;2023-04-30T00:39:23;2.92;;;2.45;;
75864;SDS011;64510;46.704;38.274;2023-04-30T00:41:49;6.20;;;2.67;;
75864;SDS011;64510;46.704;38.274;2023-04-30T00:44:14;3.25;;;2.13;;
75864;SDS011;64510;46.704;38.274;2023-04-30T00:46:40;3.33;;;2.50;;
75864;SDS011;64510;46.704;38.274;2023-04-30T00:49:07;5.97;;;3.22;;
75864;SDS011;64510;46.704;38.274;2023-04-30T00:51:33;4.97;;;3.20;;
75864;SDS011;64510;46.704;38.274;2023-04-30T00:54:00;3.45;;;2.72;;
75864;SDS011;64510;46.704;38.274;2023-04-30T00:56:28;5.82;;;2.33;;
75864;SDS011;64510;46.704;38.274;2023-04-30T00:58:57;3.08;;;2.22;;
75864;SDS011;64510;46.704;38.274;2023-04-30T01:01:24;3.88;;;2.30;;
75864;SDS011;64510;46.704;38.274;2023-04-30T01:03:50;3.22;;;1.98;;
75864;SDS011;64510;46.704;38.274;2023-04-30T01:06:16;6.78;;;2.25;;
75864;SDS011;64510;46.704;38.274;2023-04-30T01:08:42;4.32;;;2.58;;
75864;SDS011;64510;46.704;38.274;2023-04-30T01:16:40;3.08;;;2.40;;
75864;SDS011;64510;46.704;38.274;2023-04-30T01:19:19;3.67;;;2.35;;
75864;SDS011;64510;46.704;38.274;2023-04-30T01:21:53;3.47;;;2.65;;
75864;SDS011;64510;46.704;38.274;2023-04-30T01:24:31;8.00;;;2.83;;
75864;SDS011;64510;46.704;38.274;2023-04-30T01:27:46;2.70;;;2.50;;
75864;SDS011;64510;46.704;38.274;2023-04-30T01:30:29;3.15;;;2.30;;
75864;SDS011;64510;46.704;38.274;2023-04-30T01:32:59;4.72;;;2.55;;
75864;SDS011;64510;46.704;38.274;2023-04-30T01:36:10;4.40;;;2.17;;
75864;SDS011;64510;46.704;38.274;2023-04-30T01:44:11;8.75;;;2.67;;
75864;SDS011;64510;46.704;38.274;2023-04-30T01:46:40;4.22;;;2.55;;
75864;SDS011;64510;46.704;38.274;2023-04-30T01:51:58;3.40;;;2.70;;
75864;SDS011;64510;46.704;38.274;2023-04-30T01:54:44;3.55;;;2.60;;
75864;SDS011;64510;46.704;38.274;2023-04-30T01:57:17;7.22;;;3.55;;
75864;SDS011;64510;46.704;38.274;2023-04-30T01:59:52;4.13;;;2.30;;
75864;SDS011;64510;46.704;38.274;2023-04-30T02:02:18;6.45;;;3.05;;
75864;SDS011;64510;46.704;38.274;2023-04-30T02:04:45;7.75;;;3.15;;
75864;SDS011;64510;46.704;38.274;2023-04-30T02:07:12;4.45;;;3.15;;
75864;SDS011;64510;46.704;38.274;2023-04-30T02:09:52;8.43;;;3.33;;
75864;SDS011;64510;46.704;38.274;2023-04-30T02:12:19;4.80;;;2.78;;
75864;SDS011;64510;46.704;38.274;2023-04-30T02:14:45;6.32;;;3.40;;
75864;SDS011;64510;46.704;38.274;2023-04-30T02:17:10;4.55;;;2.90;;
75864;SDS011;64510;46.704;38.274;2023-04-30T02:19:36;3.53;;;2.85;;
75864;SDS011;64510;46.704;38.274;2023-04-30T02:22:05;6.85;;;3.28;;
75864;SDS011;64510;46.704;38.274;2023-04-30T02:24:31;4.25;;;2.78;;
75864;SDS011;64510;46.704;38.274;2023-04-30T02:26:57;9.05;;;3.67;;
75864;SDS011;64510;46.704;38.274;2023-04-30T02:29:23;10.55;;;3.95;;
75864;SDS011;64510;46.704;38.274;2023-04-30T02:31:49;6.32;;;3.17;;
75864;SDS011;64510;46.704;38.274;2023-04-30T02:34:15;7.40;;;3.45;;
75864;SDS011;64510;46.704;38.274;2023-04-30T02:36:41;6.18;;;3.85;;
75864;SDS011;64510;46.704;38.274;2023-04-30T02:39:07;13.35;;;4.38;;
75864;SDS011;64510;46.704;38.274;2023-04-30T02:41:33;6.47;;;4.25;;
75864;SDS011;64510;46.704;38.274;2023-04-30T02:43:59;6.72;;;3.88;;
75864;SDS011;64510;46.704;38.274;2023-04-30T02:46:25;4.75;;;3.50;;
75864;SDS011;64510;46.704;38.274;2023-04-30T02:48:51;6.13;;;3.35;;
75864;SDS011;64510;46.704;38.274;2023-04-30T02:51:16;7.65;;;3.25;;
75864;SDS011;64510;46.704;38.274;2023-04-30T02:53:42;9.07;;;3.25;;
75864;SDS011;64510;46.704;38.274;2023-04-30T02:56:08;3.28;;;2.83;;
75864;SDS011;64510;46.704;38.274;2023-04-30T02:58:34;6.70;;;3.10;;
75864;SDS011;64510;46.704;38.274;2023-04-30T03:01:00;6.13;;;2.83;;
75864;SDS011;64510;46.704;38.274;2023-04-30T03:03:26;3.05;;;2.60;;
75864;SDS011;64510;46.704;38.274;2023-04-30T03:05:52;3.45;;;2.35;;
75864;SDS011;64510;46.704;38.274;2023-04-30T03:08:20;3.00;;;2.08;;
75864;SDS011;64510;46.704;38.274;2023-04-30T03:10:47;3.35;;;2.67;;
75864;SDS011;64510;46.704;38.274;2023-04-30T03:13:12;3.28;;;2.42;;
75864;SDS011;64510;46.704;38.274;2023-04-30T03:15:38;2.30;;;1.95;;
75864;SDS011;64510;46.704;38.274;2023-04-30T03:18:05;3.22;;;2.40;;
75864;SDS011;64510;46.704;38.274;2023-04-30T03:20:31;2.90;;;1.80;;
75864;SDS011;64510;46.704;38.274;2023-04-30T03:22:57;2.83;;;1.80;;
75864;SDS011;64510;46.704;38.274;2023-04-30T03:25:23;1.67;;;1.58;;
75864;SDS011;64510;46.704;38.274;2023-04-30T03:27:50;2.40;;;1.50;;
75864;SDS011;64510;46.704;38.274;2023-04-30T03:30:15;4.50;;;2.20;;
75864;SDS011;64510;46.704;38.274;2023-04-30T03:32:41;2.55;;;1.50;;
75864;SDS011;64510;46.704;38.274;2023-04-30T03:35:07;2.83;;;1.63;;
75864;SDS011;64510;46.704;38.274;2023-04-30T03:37:33;1.88;;;1.13;;
75864;SDS011;64510;46.704;38.274;2023-04-30T03:39:59;1.35;;;1.25;;
75864;SDS011;64510;46.704;38.274;2023-04-30T03:42:25;2.92;;;1.33;;
75864;SDS011;64510;46.704;38.274;2023-04-30T03:44:51;3.17;;;1.75;;
75864;SDS011;64510;46.704;38.274;2023-04-30T03:47:17;4.00;;;1.30;;
75864;SDS011;64510;46.704;38.274;2023-04-30T03:49:43;4.13;;;2.05;;
75864;SDS011;64510;46.704;38.274;2023-04-30T03:52:09;1.42;;;1.33;;
75864;SDS011;64510;46.704;38.274;2023-04-30T03:54:35;2.28;;;1.50;;
75864;SDS011;64510;46.704;38.274;2023-04-30T03:57:01;1.02;;;0.93;;
75864;SDS011;64510;46.704;38.274;2023-04-30T03:59:30;0.95;;;0.93;;
75864;SDS011;64510;46.704;38.274;2023-04-30T04:01:56;3.47;;;1.30;;
75864;SDS011;64510;46.704;38.274;2023-04-30T04:04:22;1.67;;;0.85;;
75864;SDS011;64510;46.704;38.274;2023-04-30T04:06:48;4.90;;;2.45;;
75864;SDS011;64510;46.704;38.274;2023-04-30T04:09:16;4.03;;;1.05;;
75864;SDS011;64510;46.704;38.274;2023-04-30T04:11:42;0.80;;;0.80;;
75864;SDS011;64510;46.704;38.274;2023-04-30T04:14:08;2.78;;;1.40;;
75864;SDS011;64510;46.704;38.274;2023-04-30T04:16:34;3.70;;;1.02;;
75864;SDS011;64510;46.704;38.274;2023-04-30T04:19:00;2.08;;;1.05;;
75864;SDS011;64510;46.704;38.274;2023-04-30T04:21:26;3.80;;;1.10;;
75864;SDS011;64510;46.704;38.274;2023-04-30T04:23:53;3.42;;;0.82;;
75864;SDS011;64510;46.704;38.274;2023-04-30T04:26:19;1.65;;;0.98;;
75864;SDS011;64510;46.704;38.274;2023-04-30T04:28:52;2.75;;;1.23;;
75864;SDS011;64510;46.704;38.274;2023-04-30T04:31:18;0.80;;;0.80;;
75864;SDS011;64510;46.704;38.274;2023-04-30T04:33:44;2.35;;;0.93;;
75864;SDS011;64510;46.704;38.274;2023-04-30T04:36:11;3.35;;;0.90;;
75864;SDS011;64510;46.704;38.274;2023-04-30T04:38:37;6.18;;;0.93;;
75864;SDS011;64510;46.704;38.274;2023-04-30T04:41:03;2.28;;;0.68;;
75864;SDS011;64510;46.704;38.274;2023-04-30T04:43:29;2.47;;;0.95;;
75864;SDS011;64510;46.704;38.274;2023-04-30T04:45:55;1.02;;;1.02;;
75864;SDS011;64510;46.704;38.274;2023-04-30T04:48:21;2.08;;;0.80;;
75864;SDS011;64510;46.704;38.274;2023-04-30T04:50:47;2.20;;;0.88;;
75864;SDS011;64510;46.704;38.274;2023-04-30T04:53:13;4.38;;;1.25;;
75864;SDS011;64510;46.704;38.274;2023-04-30T04:55:39;5.07;;;0.80;;
75864;SDS011;64510;46.704;38.274;2023-04-30T04:58:05;1.48;;;0.98;;
75864;SDS011;64510;46.704;38.274;2023-04-30T05:00:31;5.18;;;1.05;;
75864;SDS011;64510;46.704;38.274;2023-04-30T05:02:58;1.35;;;1.02;;
75864;SDS011;64510;46.704;38.274;2023-04-30T05:05:24;3.20;;;0.75;;
75864;SDS011;64510;46.704;38.274;2023-04-30T05:07:50;1.95;;;0.82;;
75864;SDS011;64510;46.704;38.274;2023-04-30T05:10:19;1.90;;;0.98;;
75864;SDS011;64510;46.704;38.274;2023-04-30T05:12:45;2.15;;;0.90;;
75864;SDS011;64510;46.704;38.274;2023-04-30T05:15:11;2.10;;;0.98;;
75864;SDS011;64510;46.704;38.274;2023-04-30T05:17:37;0.75;;;0.65;;
75864;SDS011;64510;46.704;38.274;2023-04-30T05:20:03;0.90;;;0.55;;
75864;SDS011;64510;46.704;38.274;2023-04-30T05:22:31;3.85;;;0.80;;
75864;SDS011;64510;46.704;38.274;2023-04-30T05:24:57;2.60;;;1.00;;
75864;SDS011;64510;46.704;38.274;2023-04-30T05:27:23;5.78;;;1.20;;
75864;SDS011;64510;46.704;38.274;2023-04-30T05:29:49;0.85;;;0.85;;
75864;SDS011;64510;46.704;38.274;2023-04-30T05:32:15;0.70;;;0.70;;
75864;SDS011;64510;46.704;38.274;2023-04-30T05:34:41;2.65;;;1.00;;
75864;SDS011;64510;46.704;38.274;2023-04-30T05:37:07;2.65;;;1.08;;
75864;SDS011;64510;46.704;38.274;2023-04-30T05:39:33;2.97;;;0.70;;
75864;SDS011;64510;46.704;38.274;2023-04-30T05:41:58;2.33;;;2.13;;
75864;SDS011;64510;46.704;38.274;2023-04-30T05:44:26;1.85;;;0.88;;
75864;SDS011;64510;46.704;38.274;2023-04-30T05:46:54;2.97;;;1.00;;
75864;SDS011;64510;46.704;38.274;2023-04-30T05:49:20;1.50;;;0.70;;
75864;SDS011;64510;46.704;38.274;2023-04-30T05:51:46;2.75;;;1.10;;
75864;SDS011;64510;46.704;38.274;2023-04-30T05:54:12;2.00;;;0.90;;
75864;SDS011;64510;46.704;38.274;2023-04-30T05:56:38;1.50;;;0.90;;
75864;SDS011;64510;46.704;38.274;2023-04-30T05:59:04;2.42;;;1.15;;
75864;SDS011;64510;46.704;38.274;2023-04-30T06:01:30;1.85;;;0.77;;
75864;SDS011;64510;46.704;38.274;2023-04-30T06:03:55;3.42;;;1.38;;
75864;SDS011;64510;46.704;38.274;2023-04-30T06:06:23;1.67;;;0.60;;
75864;SDS011;64510;46.704;38.274;2023-04-30T06:08:49;1.23;;;1.23;;
75864;SDS011;64510;46.704;38.274;2023-04-30T06:11:15;1.75;;;0.68;;
75864;SDS011;64510;46.704;38.274;2023-04-30T06:13:41;1.00;;;0.70;;
75864;SDS011;64510;46.704;38.274;2023-04-30T06:16:07;2.00;;;1.30;;
75864;SDS011;64510;46.704;38.274;2023-04-30T06:18:33;1.58;;;0.82;;
75864;SDS011;64510;46.704;38.274;2023-04-30T06:20:59;0.95;;;0.77;;
75864;SDS011;64510;46.704;38.274;2023-04-30T06:23:25;1.83;;;1.25;;
75864;SDS011;64510;46.704;38.274;2023-04-30T06:25:51;4.18;;;1.05;;
75864;SDS011;64510;46.704;38.274;2023-04-30T06:28:16;0.70;;;0.70;;
75864;SDS011;64510;46.704;38.274;2023-04-30T06:30:42;1.85;;;0.80;;
75864;SDS011;64510;46.704;38.274;2023-04-30T06:33:08;0.68;;;0.68;;
75864;SDS011;64510;46.704;38.274;2023-04-30T06:35:34;2.08;;;0.70;;
75864;SDS011;64510;46.704;38.274;2023-04-30T06:38:00;0.82;;;0.40;;
75864;SDS011;64510;46.704;38.274;2023-04-30T06:40:26;0.60;;;0.60;;
75864;SDS011;64510;46.704;38.274;2023-04-30T06:42:52;1.05;;;0.95;;
75864;SDS011;64510;46.704;38.274;2023-04-30T06:45:18;0.85;;;0.60;;
75864;SDS011;64510;46.704;38.274;2023-04-30T06:47:45;1.30;;;0.75;;
75864;SDS011;64510;46.704;38.274;2023-04-30T06:50:11;3.70;;;1.20;;
75864;SDS011;64510;46.704;38.274;2023-04-30T06:52:37;2.75;;;1.48;;
75864;SDS011;64510;46.704;38.274;2023-04-30T06:55:03;2.50;;;1.17;;
75864;SDS011;64510;46.704;38.274;2023-04-30T06:57:29;4.00;;;1.05;;
75864;SDS011;64510;46.704;38.274;2023-04-30T06:59:56;1.00;;;0.90;;
75864;SDS011;64510;46.704;38.274;2023-04-30T07:02:22;2.95;;;1.05;;
75864;SDS011;64510;46.704;38.274;2023-04-30T07:04:47;6.63;;;3.42;;
75864;SDS011;64510;46.704;38.274;2023-04-30T07:07:13;2.03;;;0.63;;
75864;SDS011;64510;46.704;38.274;2023-04-30T07:09:39;6.82;;;1.45;;
75864;SDS011;64510;46.704;38.274;2023-04-30T07:12:05;2.10;;;0.60;;
75864;SDS011;64510;46.704;38.274;2023-04-30T07:14:31;1.05;;;0.80;;
75864;SDS011;64510;46.704;38.274;2023-04-30T07:16:57;2.47;;;0.70;;
75864;SDS011;64510;46.704;38.274;2023-04-30T07:19:23;3.47;;;0.73;;
75864;SDS011;64510;46.704;38.274;2023-04-30T07:21:51;2.42;;;0.52;;
75864;SDS011;64510;46.704;38.274;2023-04-30T07:24:17;1.17;;;0.50;;
75864;SDS011;64510;46.704;38.274;2023-04-30T07:26:43;1.55;;;0.93;;
75864;SDS011;64510;46.704;38.274;2023-04-30T07:29:09;1.23;;;0.70;;
75864;SDS011;64510;46.704;38.274;2023-04-30T07:31:35;4.57;;;0.80;;
75864;SDS011;64510;46.704;38.274;2023-04-30T07:34:01;6.00;;;0.98;;
75864;SDS011;64510;46.704;38.274;2023-04-30T07:36:27;4.10;;;1.13;;
75864;SDS011;64510;46.704;38.274;2023-04-30T07:38:53;1.02;;;0.60;;
75864;SDS011;64510;46.704;38.274;2023-04-30T07:41:19;2.55;;;1.25;;
75864;SDS011;64510;46.704;38.274;2023-04-30T07:43:46;0.70;;;0.70;;
75864;SDS011;64510;46.704;38.274;2023-04-30T07:46:12;1.33;;;1.15;;
75864;SDS011;64510;46.704;38.274;2023-04-30T07:48:37;1.13;;;1.02;;
75864;SDS011;64510;46.704;38.274;2023-04-30T07:51:03;4.95;;;0.85;;
75864;SDS011;64510;46.704;38.274;2023-04-30T07:53:29;1.90;;;0.82;;
75864;SDS011;64510;46.704;38.274;2023-04-30T07:55:55;2.65;;;1.20;;
75864;SDS011;64510;46.704;38.274;2023-04-30T07:58:21;2.95;;;1.27;;
75864;SDS011;64510;46.704;38.274;2023-04-30T08:00:47;1.00;;;1.00;;
75864;SDS011;64510;46.704;38.274;2023-04-30T08:03:13;4.63;;;1.17;;
75864;SDS011;64510;46.704;38.274;2023-04-30T08:05:39;3.67;;;0.60;;
75864;SDS011;64510;46.704;38.274;2023-04-30T08:08:05;1.15;;;0.93;;
75864;SDS011;64510;46.704;38.274;2023-04-30T08:10:31;0.90;;;0.75;;
75864;SDS011;64510;46.704;38.274;2023-04-30T08:12:57;1.02;;;0.70;;
75864;SDS011;64510;46.704;38.274;2023-04-30T08:15:23;3.05;;;0.77;;
75864;SDS011;64510;46.704;38.274;2023-04-30T08:17:50;4.93;;;0.85;;
75864;SDS011;64510;46.704;38.274;2023-04-30T08:20:16;4.40;;;0.73;;
75864;SDS011;64510;46.704;38.274;2023-04-30T08:22:43;2.75;;;1.20;;
75864;SDS011;64510;46.704;38.274;2023-04-30T08:25:12;1.75;;;0.90;;
75864;SDS011;64510;46.704;38.274;2023-04-30T08:27:38;1.95;;;1.20;;
75864;SDS011;64510;46.704;38.274;2023-04-30T08:30:05;1.63;;;0.90;;
75864;SDS011;64510;46.704;38.274;2023-04-30T08:32:35;5.97;;;1.00;;
75864;SDS011;64510;46.704;38.274;2023-04-30T08:35:02;5.68;;;1.35;;
75864;SDS011;64510;46.704;38.274;2023-04-30T08:37:31;4.28;;;1.17;;
75864;SDS011;64510;46.704;38.274;2023-04-30T08:39:58;8.27;;;1.70;;
75864;SDS011;64510;46.704;38.274;2023-04-30T08:42:25;2.15;;;1.20;;
75864;SDS011;64510;46.704;38.274;2023-04-30T08:44:55;2.22;;;1.20;;
75864;SDS011;64510;46.704;38.274;2023-04-30T08:47:23;1.58;;;0.95;;
75864;SDS011;64510;46.704;38.274;2023-04-30T08:49:49;1.67;;;0.90;;
75864;SDS011;64510;46.704;38.274;2023-04-30T08:52:16;1.77;;;0.73;;
75864;SDS011;64510;46.704;38.274;2023-04-30T08:54:43;1.67;;;0.50;;
75864;SDS011;64510;46.704;38.274;2023-04-30T08:57:11;1.20;;;0.88;;
75864;SDS011;64510;46.704;38.274;2023-04-30T08:59:37;1.48;;;0.80;;
75864;SDS011;64510;46.704;38.274;2023-04-30T09:02:03;2.08;;;0.80;;
75864;SDS011;64510;46.704;38.274;2023-04-30T09:04:30;3.20;;;0.45;;
75864;SDS011;64510;46.704;38.274;2023-04-30T09:06:56;3.33;;;1.08;;
75864;SDS011;64510;46.704;38.274;2023-04-30T09:09:28;2.17;;;0.90;;
75864;SDS011;64510;46.704;38.274;2023-04-30T09:17:22;4.85;;;1.15;;
75864;SDS011;64510;46.704;38.274;2023-04-30T09:19:49;0.77;;;0.52;;
75864;SDS011;64510;46.704;38.274;2023-04-30T09:22:20;1.77;;;0.60;;
75864;SDS011;64510;46.704;38.274;2023-04-30T09:24:48;2.15;;;0.90;;
75864;SDS011;64510;46.704;38.274;2023-04-30T09:27:19;1.15;;;0.80;;
75864;SDS011;64510;46.704;38.274;2023-04-30T09:29:47;5.22;;;1.10;;
75864;SDS011;64510;46.704;38.274;2023-04-30T09:32:13;1.98;;;1.48;;
75864;SDS011;64510;46.704;38.274;2023-04-30T09:34:39;1.00;;;0.70;;
75864;SDS011;64510;46.704;38.274;2023-04-30T09:37:07;2.45;;;0.77;;
75864;SDS011;64510;46.704;38.274;2023-04-30T09:39:44;0.88;;;0.52;;
75864;SDS011;64510;46.704;38.274;2023-04-30T09:42:19;1.38;;;0.63;;
75864;SDS011;64510;46.704;38.274;2023-04-30T09:44:46;0.60;;;0.60;;
75864;SDS011;64510;46.704;38.274;2023-04-30T09:47:15;2.92;;;0.98;;
75864;SDS011;64510;46.704;38.274;2023-04-30T09:49:42;2.05;;;0.60;;
75864;SDS011;64510;46.704;38.274;2023-04-30T09:52:13;2.00;;;1.20;;
75864;SDS011;64510;46.704;38.274;2023-04-30T09:54:40;1.15;;;0.73;;
75864;SDS011;64510;46.704;38.274;2023-04-30T09:57:09;2.17;;;0.70;;
75864;SDS011;64510;46.704;38.274;2023-04-30T09:59:36;3.17;;;0.82;;
75864;SDS011;64510;46.704;38.274;2023-04-30T10:02:07;3.15;;;0.88;;
75864;SDS011;64510;46.704;38.274;2023-04-30T10:04:34;1.40;;;0.90;;
75864;SDS011;64510;46.704;38.274;2023-04-30T10:07:08;2.08;;;0.68;;
75864;SDS011;64510;46.704;38.274;2023-04-30T10:09:39;5.40;;;1.48;;
75864;SDS011;64510;46.704;38.274;2023-04-30T10:12:13;2.13;;;1.65;;
75864;SDS011;64510;46.704;38.274;2023-04-30T10:17:38;3.03;;;1.52;;
75864;SDS011;64510;46.704;38.274;2023-04-30T10:20:05;4.05;;;1.33;;
75864;SDS011;64510;46.704;38.274;2023-04-30T10:22:34;1.77;;;1.23;;
75864;SDS011;64510;46.704;38.274;2023-04-30T10:25:01;4.35;;;1.42;;
75864;SDS011;64510;46.704;38.274;2023-04-30T10:27:28;2.95;;;1.27;;
75864;SDS011;64510;46.704;38.274;2023-04-30T10:29:54;1.55;;;0.90;;
75864;SDS011;64510;46.704;38.274;2023-04-30T10:32:22;2.28;;;1.20;;
75864;SDS011;64510;46.704;38.274;2023-04-30T10:34:52;3.63;;;1.38;;
75864;SDS011;64510;46.704;38.274;2023-04-30T10:37:35;1.48;;;0.93;;
75864;SDS011;64510;46.704;38.274;2023-04-30T10:40:10;2.90;;;0.93;;
75864;SDS011;64510;46.704;38.274;2023-04-30T10:42:36;3.80;;;0.80;;
75864;SDS011;64510;46.704;38.274;2023-04-30T10:45:09;0.88;;;0.60;;
75864;SDS011;64510;46.704;38.274;2023-04-30T10:47:35;2.17;;;1.30;;
75864;SDS011;64510;46.704;38.274;2023-04-30T10:50:03;1.67;;;0.70;;
75864;SDS011;64510;46.704;38.274;2023-04-30T10:52:30;4.00;;;1.20;;
75864;SDS011;64510;46.704;38.274;2023-04-30T10:54:55;1.10;;;0.73;;
75864;SDS011;64510;46.704;38.274;2023-04-30T10:57:21;0.98;;;0.85;;
75864;SDS011;64510;46.704;38.274;2023-04-30T11:02:37;3.88;;;1.80;;
75864;SDS011;64510;46.704;38.274;2023-04-30T11:05:09;4.32;;;2.30;;
75864;SDS011;64510;46.704;38.274;2023-04-30T11:07:36;4.93;;;2.85;;
75864;SDS011;64510;46.704;38.274;2023-04-30T11:10:02;2.17;;;1.20;;
75864;SDS011;64510;46.704;38.274;2023-04-30T11:12:32;2.58;;;1.58;;
75864;SDS011;64510;46.704;38.274;2023-04-30T11:15:20;3.63;;;2.08;;
75864;SDS011;64510;46.704;38.274;2023-04-30T11:17:49;3.33;;;1.35;;
75864;SDS011;64510;46.704;38.274;2023-04-30T11:20:19;1.52;;;1.10;;
75864;SDS011;64510;46.704;38.274;2023-04-30T11:22:47;6.10;;;1.13;;
75864;SDS011;64510;46.704;38.274;2023-04-30T11:25:38;2.03;;;1.10;;
75864;SDS011;64510;46.704;38.274;2023-04-30T11:28:10;0.75;;;0.70;;
75864;SDS011;64510;46.704;38.274;2023-04-30T11:33:22;4.10;;;0.77;;
75864;SDS011;64510;46.704;38.274;2023-04-30T11:35:50;3.28;;;0.82;;
75864;SDS011;64510;46.704;38.274;2023-04-30T11:38:18;3.72;;;1.25;;
75864;SDS011;64510;46.704;38.274;2023-04-30T11:40:49;3.20;;;1.10;;
75864;SDS011;64510;46.704;38.274;2023-04-30T11:43:25;5.90;;;1.55;;
75864;SDS011;64510;46.704;38.274;2023-04-30T11:48:32;2.80;;;1.35;;
75864;SDS011;64510;46.704;38.274;2023-04-30T11:51:01;4.93;;;1.13;;
75864;SDS011;64510;46.704;38.274;2023-04-30T11:53:29;2.53;;;1.17;;
75864;SDS011;64510;46.704;38.274;2023-04-30T11:55:55;9.63;;;4.38;;
75864;SDS011;64510;46.704;38.274;2023-04-30T11:58:21;24.63;;;6.07;;
75864;SDS011;64510;46.704;38.274;2023-04-30T12:00:47;5.03;;;2.30;;
75864;SDS011;64510;46.704;38.274;2023-04-30T12:03:16;13.40;;;6.47;;
75864;SDS011;64510;46.704;38.274;2023-04-30T12:05:42;26.05;;;12.18;;
75864;SDS011;64510;46.704;38.274;2023-04-30T12:08:10;11.73;;;5.80;;
75864;SDS011;64510;46.704;38.274;2023-04-30T12:10:37;5.03;;;2.53;;
75864;SDS011;64510;46.704;38.274;2023-04-30T12:13:03;3.92;;;2.92;;
75864;SDS011;64510;46.704;38.274;2023-04-30T12:15:29;2.80;;;1.75;;
75864;SDS011;64510;46.704;38.274;2023-04-30T12:17:56;11.77;;;6.10;;
75864;SDS011;64510;46.704;38.274;2023-04-30T12:20:28;5.65;;;2.65;;
75864;SDS011;64510;46.704;38.274;2023-04-30T12:22:56;4.45;;;2.53;;
75864;SDS011;64510;46.704;38.274;2023-04-30T12:25:23;4.65;;;2.75;;
75864;SDS011;64510;46.704;38.274;2023-04-30T12:27:50;2.33;;;1.05;;
75864;SDS011;64510;46.704;38.274;2023-04-30T12:30:20;6.07;;;1.40;;
75864;SDS011;64510;46.704;38.274;2023-04-30T12:32:50;3.67;;;0.93;;
75864;SDS011;64510;46.704;38.274;2023-04-30T12:35:18;3.22;;;0.82;;
75864;SDS011;64510;46.704;38.274;2023-04-30T12:37:46;3.95;;;1.25;;
75864;SDS011;64510;46.704;38.274;2023-04-30T12:40:17;8.35;;;2.78;;
75864;SDS011;64510;46.704;38.274;2023-04-30T12:42:44;3.80;;;1.27;;
75864;SDS011;64510;46.704;38.274;2023-04-30T12:48:07;3.30;;;1.55;;
75864;SDS011;64510;46.704;38.274;2023-04-30T12:50:33;3.67;;;1.67;;
75864;SDS011;64510;46.704;38.274;2023-04-30T12:53:01;4.97;;;1.30;;
75864;SDS011;64510;46.704;38.274;2023-04-30T12:55:29;2.65;;;1.05;;
75864;SDS011;64510;46.704;38.274;2023-04-30T12:58:01;1.70;;;0.90;;
75864;SDS011;64510;46.704;38.274;2023-04-30T13:00:29;3.85;;;2.90;;
75864;SDS011;64510;46.704;38.274;2023-04-30T13:03:07;1.42;;;0.93;;
75864;SDS011;64510;46.704;38.274;2023-04-30T13:05:32;3.45;;;1.52;;
75864;SDS011;64510;46.704;38.274;2023-04-30T13:08:01;4.35;;;1.73;;
75864;SDS011;64510;46.704;38.274;2023-04-30T13:10:30;8.45;;;1.45;;
75864;SDS011;64510;46.704;38.274;2023-04-30T13:12:57;2.15;;;1.10;;
75864;SDS011;64510;46.704;38.274;2023-04-30T13:15:23;2.50;;;1.30;;
75864;SDS011;64510;46.704;38.274;2023-04-30T13:17:50;2.47;;;0.85;;
75864;SDS011;64510;46.704;38.274;2023-04-30T13:20:16;6.43;;;2.35;;
75864;SDS011;64510;46.704;38.274;2023-04-30T13:22:43;24.35;;;10.30;;
75864;SDS011;64510;46.704;38.274;2023-04-30T13:25:09;34.65;;;11.98;;
75864;SDS011;64510;46.704;38.274;2023-04-30T13:27:34;13.68;;;6.18;;
75864;SDS011;64510;46.704;38.274;2023-04-30T13:30:01;5.57;;;3.17;;
75864;SDS011;64510;46.704;38.274;2023-04-30T13:32:28;22.85;;;11.00;;
75864;SDS011;64510;46.704;38.274;2023-04-30T13:34:54;6.88;;;2.85;;
75864;SDS011;64510;46.704;38.274;2023-04-30T13:37:20;2.17;;;1.80;;
75864;SDS011;64510;46.704;38.274;2023-04-30T13:39:46;2.80;;;2.13;;
75864;SDS011;64510;46.704;38.274;2023-04-30T13:42:12;4.40;;;2.22;;
75864;SDS011;64510;46.704;38.274;2023-04-30T13:44:38;2.20;;;1.77;;
75864;SDS011;64510;46.704;38.274;2023-04-30T13:47:05;1.85;;;1.50;;
75864;SDS011;64510;46.704;38.274;2023-04-30T13:49:31;1.45;;;1.35;;
75864;SDS011;64510;46.704;38.274;2023-04-30T13:52:00;2.38;;;1.02;;
75864;SDS011;64510;46.704;38.274;2023-04-30T13:54:27;2.50;;;1.10;;
75864;SDS011;64510;46.704;38.274;2023-04-30T13:56:53;0.70;;;0.70;;
75864;SDS011;64510;46.704;38.274;2023-04-30T13:59:19;2.40;;;1.30;;
75864;SDS011;64510;46.704;38.274;2023-04-30T14:01:45;2.90;;;1.15;;
75864;SDS011;64510;46.704;38.274;2023-04-30T14:04:11;1.75;;;1.15;;
75864;SDS011;64510;46.704;38.274;2023-04-30T14:06:39;4.53;;;1.20;;
75864;SDS011;64510;46.704;38.274;2023-04-30T14:09:05;3.00;;;1.17;;
75864;SDS011;64510;46.704;38.274;2023-04-30T14:11:31;3.38;;;1.08;;
75864;SDS011;64510;46.704;38.274;2023-04-30T14:13:57;4.57;;;1.45;;
75864;SDS011;64510;46.704;38.274;2023-04-30T14:16:23;4.07;;;1.88;;
75864;SDS011;64510;46.704;38.274;2023-04-30T14:18:50;4.43;;;1.80;;
75864;SDS011;64510;46.704;38.274;2023-04-30T14:21:16;10.93;;;4.13;;
75864;SDS011;64510;46.704;38.274;2023-04-30T14:23:42;4.25;;;1.90;;
75864;SDS011;64510;46.704;38.274;2023-04-30T14:26:10;3.92;;;1.40;;
75864;SDS011;64510;46.704;38.274;2023-04-30T14:28:37;2.65;;;1.42;;
75864;SDS011;64510;46.704;38.274;2023-04-30T14:31:03;4.53;;;1.52;;
75864;SDS011;64510;46.704;38.274;2023-04-30T14:33:29;3.35;;;1.50;;
75864;SDS011;64510;46.704;38.274;2023-04-30T14:35:56;2.92;;;1.42;;
75864;SDS011;64510;46.704;38.274;2023-04-30T14:38:24;5.97;;;2.60;;
75864;SDS011;64510;46.704;38.274;2023-04-30T14:40:50;3.97;;;1.85;;
75864;SDS011;64510;46.704;38.274;2023-04-30T14:43:16;3.45;;;2.53;;
75864;SDS011;64510;46.704;38.274;2023-04-30T14:45:42;7.10;;;2.97;;
75864;SDS011;64510;46.704;38.274;2023-04-30T14:48:09;11.82;;;5.90;;
75864;SDS011;64510;46.704;38.274;2023-04-30T14:50:36;6.88;;;5.10;;
75864;SDS011;64510;46.704;38.274;2023-04-30T14:53:03;17.13;;;7.78;;
75864;SDS011;64510;46.704;38.274;2023-04-30T14:55:29;4.82;;;2.38;;
75864;SDS011;64510;46.704;38.274;2023-04-30T14:57:56;5.40;;;3.70;;
75864;SDS011;64510;46.704;38.274;2023-04-30T15:00:23;10.48;;;6.18;;
75864;SDS011;64510;46.704;38.274;2023-04-30T15:02:49;5.35;;;4.22;;
75864;SDS011;64510;46.704;38.274;2023-04-30T15:05:15;6.63;;;3.15;;
75864;SDS011;64510;46.704;38.274;2023-04-30T15:07:41;5.68;;;2.10;;